sensor_id;sensor_type;location;lat;lon;timestamp;P1;durP1;ratioP1;P2;durP2;ratioP2
22705;SDS011;11520;51.198;4.468;2023-06-22T00:00:52;5.22;;;3.15;;
22705;SDS011;11520;51.198;4.468;2023-06-22T00:03:18;4.45;;;3.30;;
22705;SDS011;11520;51.198;4.468;2023-06-22T00:05:48;7.03;;;3.40;;
22705;SDS011;11520;51.198;4.468;2023-06-22T00:08:14;6.10;;;3.97;;
22705;SDS011;11520;51.198;4.468;2023-06-22T00:10:40;5.28;;;3.47;;
22705;SDS011;11520;51.198;4.468;2023-06-22T00:13:06;4.70;;;3.15;;
22705;SDS011;11520;51.198;4.468;2023-06-22T00:15:34;8.38;;;3.20;;
22705;SDS011;11520;51.198;4.468;2023-06-22T00:18:00;4.47;;;3.35;;
22705;SDS011;11520;51.198;4.468;2023-06-22T00:20:26;3.35;;;2.75;;
22705;SDS011;11520;51.198;4.468;2023-06-22T00:22:53;5.05;;;3.65;;
22705;SDS011;11520;51.198;4.468;2023-06-22T00:25:19;3.80;;;2.85;;
22705;SDS011;11520;51.198;4.468;2023-06-22T00:27:44;4.18;;;3.47;;
22705;SDS011;11520;51.198;4.468;2023-06-22T00:30:10;5.47;;;3.60;;
22705;SDS011;11520;51.198;4.468;2023-06-22T00:32:37;4.82;;;3.15;;
22705;SDS011;11520;51.198;4.468;2023-06-22T00:35:03;5.75;;;3.83;;
22705;SDS011;11520;51.198;4.468;2023-06-22T00:37:29;4.78;;;3.33;;
22705;SDS011;11520;51.198;4.468;2023-06-22T00:39:55;5.35;;;3.40;;
22705;SDS011;11520;51.198;4.468;2023-06-22T00:42:21;6.88;;;3.85;;
22705;SDS011;11520;51.198;4.468;2023-06-22T00:44:47;6.50;;;4.40;;
22705;SDS011;11520;51.198;4.468;2023-06-22T00:47:17;5.35;;;3.85;;
22705;SDS011;11520;51.198;4.468;2023-06-22T00:49:43;8.25;;;4.57;;
22705;SDS011;11520;51.198;4.468;2023-06-22T00:52:09;4.47;;;3.58;;
22705;SDS011;11520;51.198;4.468;2023-06-22T00:54:39;4.07;;;3.40;;
22705;SDS011;11520;51.198;4.468;2023-06-22T00:57:11;4.93;;;3.55;;
22705;SDS011;11520;51.198;4.468;2023-06-22T00:59:42;6.18;;;3.95;;
22705;SDS011;11520;51.198;4.468;2023-06-22T01:02:09;4.78;;;3.80;;
22705;SDS011;11520;51.198;4.468;2023-06-22T01:04:35;5.28;;;4.30;;
22705;SDS011;11520;51.198;4.468;2023-06-22T01:07:04;5.05;;;3.88;;
22705;SDS011;11520;51.198;4.468;2023-06-22T01:09:42;8.13;;;4.00;;
22705;SDS011;11520;51.198;4.468;2023-06-22T01:12:14;7.93;;;4.05;;
22705;SDS011;11520;51.198;4.468;2023-06-22T01:14:42;7.43;;;4.57;;
22705;SDS011;11520;51.198;4.468;2023-06-22T01:17:12;7.15;;;4.32;;
22705;SDS011;11520;51.198;4.468;2023-06-22T01:19:50;6.07;;;4.15;;
22705;SDS011;11520;51.198;4.468;2023-06-22T01:22:27;5.85;;;4.13;;
22705;SDS011;11520;51.198;4.468;2023-06-22T01:30:56;4.63;;;3.83;;
22705;SDS011;11520;51.198;4.468;2023-06-22T01:33:31;7.45;;;4.72;;
22705;SDS011;11520;51.198;4.468;2023-06-22T01:36:00;6.93;;;4.53;;
22705;SDS011;11520;51.198;4.468;2023-06-22T01:38:27;7.97;;;4.63;;
22705;SDS011;11520;51.198;4.468;2023-06-22T01:40:54;8.95;;;4.68;;
22705;SDS011;11520;51.198;4.468;2023-06-22T01:43:22;7.10;;;5.40;;
22705;SDS011;11520;51.198;4.468;2023-06-22T01:45:51;7.32;;;5.15;;
22705;SDS011;11520;51.198;4.468;2023-06-22T01:48:18;8.07;;;5.63;;
22705;SDS011;11520;51.198;4.468;2023-06-22T01:50:45;9.80;;;5.75;;
22705;SDS011;11520;51.198;4.468;2023-06-22T01:53:11;6.75;;;5.22;;
22705;SDS011;11520;51.198;4.468;2023-06-22T01:55:36;6.28;;;4.90;;
22705;SDS011;11520;51.198;4.468;2023-06-22T01:58:02;6.40;;;5.13;;
22705;SDS011;11520;51.198;4.468;2023-06-22T02:00:28;6.32;;;4.47;;
22705;SDS011;11520;51.198;4.468;2023-06-22T02:02:59;7.85;;;4.55;;
22705;SDS011;11520;51.198;4.468;2023-06-22T02:05:34;6.97;;;4.78;;
22705;SDS011;11520;51.198;4.468;2023-06-22T02:08:09;8.45;;;5.45;;
22705;SDS011;11520;51.198;4.468;2023-06-22T02:10:37;6.50;;;4.78;;
22705;SDS011;11520;51.198;4.468;2023-06-22T02:13:06;10.18;;;4.68;;
22705;SDS011;11520;51.198;4.468;2023-06-22T02:15:32;6.55;;;5.20;;
22705;SDS011;11520;51.198;4.468;2023-06-22T02:17:59;6.07;;;5.05;;
22705;SDS011;11520;51.198;4.468;2023-06-22T02:20:25;6.53;;;4.45;;
22705;SDS011;11520;51.198;4.468;2023-06-22T02:22:51;9.65;;;5.72;;
22705;SDS011;11520;51.198;4.468;2023-06-22T02:25:16;8.18;;;4.90;;
22705;SDS011;11520;51.198;4.468;2023-06-22T02:27:42;6.15;;;4.68;;
22705;SDS011;11520;51.198;4.468;2023-06-22T02:30:08;7.30;;;5.18;;
22705;SDS011;11520;51.198;4.468;2023-06-22T02:32:34;7.63;;;5.07;;
22705;SDS011;11520;51.198;4.468;2023-06-22T02:35:00;9.63;;;5.78;;
22705;SDS011;11520;51.198;4.468;2023-06-22T02:37:29;9.57;;;5.50;;
22705;SDS011;11520;51.198;4.468;2023-06-22T02:39:55;7.07;;;5.05;;
22705;SDS011;11520;51.198;4.468;2023-06-22T02:42:21;8.07;;;5.65;;
22705;SDS011;11520;51.198;4.468;2023-06-22T02:44:46;8.30;;;6.25;;
22705;SDS011;11520;51.198;4.468;2023-06-22T02:47:12;6.63;;;5.40;;
22705;SDS011;11520;51.198;4.468;2023-06-22T02:49:38;9.35;;;5.75;;
22705;SDS011;11520;51.198;4.468;2023-06-22T02:52:03;8.00;;;5.82;;
22705;SDS011;11520;51.198;4.468;2023-06-22T02:54:29;9.68;;;5.82;;
22705;SDS011;11520;51.198;4.468;2023-06-22T02:56:55;8.18;;;5.35;;
22705;SDS011;11520;51.198;4.468;2023-06-22T02:59:21;8.38;;;5.85;;
22705;SDS011;11520;51.198;4.468;2023-06-22T03:01:49;6.88;;;5.97;;
22705;SDS011;11520;51.198;4.468;2023-06-22T03:04:16;9.43;;;6.22;;
22705;SDS011;11520;51.198;4.468;2023-06-22T03:06:41;10.10;;;6.43;;
22705;SDS011;11520;51.198;4.468;2023-06-22T03:09:07;8.88;;;6.47;;
22705;SDS011;11520;51.198;4.468;2023-06-22T03:11:33;9.43;;;6.32;;
22705;SDS011;11520;51.198;4.468;2023-06-22T03:14:02;10.15;;;6.07;;
22705;SDS011;11520;51.198;4.468;2023-06-22T03:16:29;11.23;;;7.13;;
22705;SDS011;11520;51.198;4.468;2023-06-22T03:18:54;8.75;;;6.82;;
22705;SDS011;11520;51.198;4.468;2023-06-22T03:21:22;10.43;;;7.32;;
22705;SDS011;11520;51.198;4.468;2023-06-22T03:23:48;7.68;;;6.38;;
22705;SDS011;11520;51.198;4.468;2023-06-22T03:26:17;10.65;;;7.35;;
22705;SDS011;11520;51.198;4.468;2023-06-22T03:28:43;12.30;;;7.15;;
22705;SDS011;11520;51.198;4.468;2023-06-22T03:31:08;11.15;;;7.55;;
22705;SDS011;11520;51.198;4.468;2023-06-22T03:33:34;12.00;;;7.32;;
22705;SDS011;11520;51.198;4.468;2023-06-22T03:36:00;13.95;;;7.65;;
22705;SDS011;11520;51.198;4.468;2023-06-22T03:38:25;10.55;;;7.40;;
22705;SDS011;11520;51.198;4.468;2023-06-22T03:40:51;11.82;;;8.10;;
22705;SDS011;11520;51.198;4.468;2023-06-22T03:43:16;10.77;;;7.63;;
22705;SDS011;11520;51.198;4.468;2023-06-22T03:45:42;11.73;;;8.55;;
22705;SDS011;11520;51.198;4.468;2023-06-22T03:48:10;12.98;;;9.02;;
22705;SDS011;11520;51.198;4.468;2023-06-22T03:50:36;12.27;;;8.90;;
22705;SDS011;11520;51.198;4.468;2023-06-22T03:53:01;13.55;;;10.00;;
22705;SDS011;11520;51.198;4.468;2023-06-22T03:55:27;14.68;;;9.60;;
22705;SDS011;11520;51.198;4.468;2023-06-22T03:57:53;16.73;;;10.25;;
22705;SDS011;11520;51.198;4.468;2023-06-22T04:00:21;12.48;;;9.73;;
22705;SDS011;11520;51.198;4.468;2023-06-22T04:02:48;17.88;;;9.70;;
22705;SDS011;11520;51.198;4.468;2023-06-22T04:05:13;15.65;;;10.00;;
22705;SDS011;11520;51.198;4.468;2023-06-22T04:07:39;14.77;;;10.65;;
22705;SDS011;11520;51.198;4.468;2023-06-22T04:10:05;15.73;;;10.65;;
22705;SDS011;11520;51.198;4.468;2023-06-22T04:12:31;13.32;;;9.90;;
22705;SDS011;11520;51.198;4.468;2023-06-22T04:14:57;13.18;;;10.25;;
22705;SDS011;11520;51.198;4.468;2023-06-22T04:17:22;14.27;;;10.40;;
22705;SDS011;11520;51.198;4.468;2023-06-22T04:19:50;12.70;;;9.50;;
22705;SDS011;11520;51.198;4.468;2023-06-22T04:22:17;17.30;;;10.85;;
22705;SDS011;11520;51.198;4.468;2023-06-22T04:24:44;16.40;;;11.65;;
22705;SDS011;11520;51.198;4.468;2023-06-22T04:27:09;14.98;;;11.13;;
22705;SDS011;11520;51.198;4.468;2023-06-22T04:29:35;17.90;;;11.23;;
22705;SDS011;11520;51.198;4.468;2023-06-22T04:32:01;17.45;;;10.88;;
22705;SDS011;11520;51.198;4.468;2023-06-22T04:34:30;14.48;;;11.40;;
22705;SDS011;11520;51.198;4.468;2023-06-22T04:36:56;16.27;;;11.57;;
22705;SDS011;11520;51.198;4.468;2023-06-22T04:39:21;20.73;;;11.60;;
22705;SDS011;11520;51.198;4.468;2023-06-22T04:41:48;18.30;;;11.57;;
22705;SDS011;11520;51.198;4.468;2023-06-22T04:44:14;20.85;;;12.25;;
22705;SDS011;11520;51.198;4.468;2023-06-22T04:46:51;14.98;;;11.30;;
22705;SDS011;11520;51.198;4.468;2023-06-22T04:49:25;17.65;;;11.55;;
22705;SDS011;11520;51.198;4.468;2023-06-22T04:52:01;17.48;;;11.77;;
22705;SDS011;11520;51.198;4.468;2023-06-22T04:54:31;20.27;;;11.05;;
22705;SDS011;11520;51.198;4.468;2023-06-22T04:57:00;17.13;;;11.77;;
22705;SDS011;11520;51.198;4.468;2023-06-22T04:59:27;15.20;;;10.05;;
22705;SDS011;11520;51.198;4.468;2023-06-22T05:01:58;16.58;;;10.70;;
22705;SDS011;11520;51.198;4.468;2023-06-22T05:04:25;17.13;;;10.73;;
22705;SDS011;11520;51.198;4.468;2023-06-22T05:06:52;15.52;;;10.57;;
22705;SDS011;11520;51.198;4.468;2023-06-22T05:09:20;12.75;;;10.18;;
22705;SDS011;11520;51.198;4.468;2023-06-22T05:11:46;13.18;;;10.48;;
22705;SDS011;11520;51.198;4.468;2023-06-22T05:14:12;15.82;;;9.80;;
22705;SDS011;11520;51.198;4.468;2023-06-22T05:16:38;12.68;;;10.00;;
22705;SDS011;11520;51.198;4.468;2023-06-22T05:19:06;12.35;;;9.80;;
22705;SDS011;11520;51.198;4.468;2023-06-22T05:21:32;14.57;;;10.50;;
22705;SDS011;11520;51.198;4.468;2023-06-22T05:23:58;13.50;;;9.77;;
22705;SDS011;11520;51.198;4.468;2023-06-22T05:26:34;12.57;;;8.68;;
22705;SDS011;11520;51.198;4.468;2023-06-22T05:29:00;12.25;;;9.85;;
22705;SDS011;11520;51.198;4.468;2023-06-22T05:31:27;12.10;;;9.20;;
22705;SDS011;11520;51.198;4.468;2023-06-22T05:33:53;13.35;;;10.68;;
22705;SDS011;11520;51.198;4.468;2023-06-22T05:36:21;12.98;;;9.70;;
22705;SDS011;11520;51.198;4.468;2023-06-22T05:38:50;15.95;;;10.63;;
22705;SDS011;11520;51.198;4.468;2023-06-22T05:41:16;13.00;;;10.30;;
22705;SDS011;11520;51.198;4.468;2023-06-22T05:43:43;15.27;;;11.38;;
22705;SDS011;11520;51.198;4.468;2023-06-22T05:46:09;17.98;;;11.07;;
22705;SDS011;11520;51.198;4.468;2023-06-22T05:48:37;14.10;;;11.40;;
22705;SDS011;11520;51.198;4.468;2023-06-22T05:51:03;17.17;;;11.50;;
22705;SDS011;11520;51.198;4.468;2023-06-22T05:53:29;12.40;;;9.98;;
22705;SDS011;11520;51.198;4.468;2023-06-22T05:55:54;20.20;;;11.90;;
22705;SDS011;11520;51.198;4.468;2023-06-22T05:58:20;19.15;;;11.50;;
22705;SDS011;11520;51.198;4.468;2023-06-22T06:00:45;19.10;;;12.18;;
22705;SDS011;11520;51.198;4.468;2023-06-22T06:03:11;14.30;;;11.70;;
22705;SDS011;11520;51.198;4.468;2023-06-22T06:05:37;13.88;;;11.43;;
22705;SDS011;11520;51.198;4.468;2023-06-22T06:08:04;15.45;;;11.10;;
22705;SDS011;11520;51.198;4.468;2023-06-22T06:10:31;16.50;;;10.73;;
22705;SDS011;11520;51.198;4.468;2023-06-22T06:12:57;16.05;;;11.98;;
22705;SDS011;11520;51.198;4.468;2023-06-22T06:15:24;18.33;;;12.02;;
22705;SDS011;11520;51.198;4.468;2023-06-22T06:17:50;17.63;;;11.88;;
22705;SDS011;11520;51.198;4.468;2023-06-22T06:20:18;16.40;;;12.15;;
22705;SDS011;11520;51.198;4.468;2023-06-22T06:22:45;17.45;;;12.10;;
22705;SDS011;11520;51.198;4.468;2023-06-22T06:25:13;18.35;;;12.70;;
22705;SDS011;11520;51.198;4.468;2023-06-22T06:27:45;14.15;;;11.20;;
22705;SDS011;11520;51.198;4.468;2023-06-22T06:30:12;15.98;;;12.50;;
22705;SDS011;11520;51.198;4.468;2023-06-22T06:32:39;18.20;;;12.63;;
22705;SDS011;11520;51.198;4.468;2023-06-22T06:35:08;15.85;;;12.55;;
22705;SDS011;11520;51.198;4.468;2023-06-22T06:37:38;15.82;;;12.15;;
22705;SDS011;11520;51.198;4.468;2023-06-22T06:40:05;16.75;;;13.38;;
22705;SDS011;11520;51.198;4.468;2023-06-22T06:42:38;18.02;;;12.48;;
22705;SDS011;11520;51.198;4.468;2023-06-22T06:45:07;17.45;;;13.05;;
22705;SDS011;11520;51.198;4.468;2023-06-22T06:47:34;18.33;;;12.25;;
22705;SDS011;11520;51.198;4.468;2023-06-22T06:49:59;15.60;;;12.55;;
22705;SDS011;11520;51.198;4.468;2023-06-22T06:52:25;15.23;;;13.35;;
22705;SDS011;11520;51.198;4.468;2023-06-22T06:54:51;15.80;;;12.27;;
22705;SDS011;11520;51.198;4.468;2023-06-22T06:57:17;19.65;;;12.77;;
22705;SDS011;11520;51.198;4.468;2023-06-22T06:59:43;18.42;;;12.77;;
22705;SDS011;11520;51.198;4.468;2023-06-22T07:02:08;17.38;;;13.60;;
22705;SDS011;11520;51.198;4.468;2023-06-22T07:04:35;18.90;;;13.57;;
22705;SDS011;11520;51.198;4.468;2023-06-22T07:07:01;19.08;;;14.02;;
22705;SDS011;11520;51.198;4.468;2023-06-22T07:09:27;17.33;;;13.30;;
22705;SDS011;11520;51.198;4.468;2023-06-22T07:11:53;20.67;;;13.73;;
22705;SDS011;11520;51.198;4.468;2023-06-22T07:14:19;18.33;;;13.10;;
22705;SDS011;11520;51.198;4.468;2023-06-22T07:16:45;18.98;;;13.77;;
22705;SDS011;11520;51.198;4.468;2023-06-22T07:19:13;16.35;;;12.68;;
22705;SDS011;11520;51.198;4.468;2023-06-22T07:21:38;21.15;;;14.23;;
22705;SDS011;11520;51.198;4.468;2023-06-22T07:24:07;17.13;;;13.80;;
22705;SDS011;11520;51.198;4.468;2023-06-22T07:26:33;18.10;;;13.77;;
22705;SDS011;11520;51.198;4.468;2023-06-22T07:28:59;16.38;;;13.40;;
22705;SDS011;11520;51.198;4.468;2023-06-22T07:31:25;17.10;;;13.10;;
22705;SDS011;11520;51.198;4.468;2023-06-22T07:33:50;20.58;;;14.35;;
22705;SDS011;11520;51.198;4.468;2023-06-22T07:36:18;16.63;;;13.95;;
22705;SDS011;11520;51.198;4.468;2023-06-22T07:38:44;20.48;;;14.07;;
22705;SDS011;11520;51.198;4.468;2023-06-22T07:41:09;19.38;;;13.93;;
22705;SDS011;11520;51.198;4.468;2023-06-22T07:43:36;20.38;;;14.43;;
22705;SDS011;11520;51.198;4.468;2023-06-22T07:46:02;16.65;;;13.27;;
22705;SDS011;11520;51.198;4.468;2023-06-22T07:48:30;20.50;;;14.20;;
22705;SDS011;11520;51.198;4.468;2023-06-22T07:50:56;17.55;;;13.77;;
22705;SDS011;11520;51.198;4.468;2023-06-22T07:53:21;17.42;;;14.30;;
22705;SDS011;11520;51.198;4.468;2023-06-22T07:55:49;18.42;;;13.02;;
22705;SDS011;11520;51.198;4.468;2023-06-22T07:58:16;19.80;;;13.10;;
22705;SDS011;11520;51.198;4.468;2023-06-22T08:00:43;21.35;;;13.55;;
22705;SDS011;11520;51.198;4.468;2023-06-22T08:03:09;16.05;;;12.30;;
22705;SDS011;11520;51.198;4.468;2023-06-22T08:05:35;15.60;;;13.05;;
22705;SDS011;11520;51.198;4.468;2023-06-22T08:08:00;18.10;;;13.05;;
22705;SDS011;11520;51.198;4.468;2023-06-22T08:10:26;16.95;;;12.57;;
22705;SDS011;11520;51.198;4.468;2023-06-22T08:12:51;20.40;;;13.50;;
22705;SDS011;11520;51.198;4.468;2023-06-22T08:15:17;18.58;;;13.05;;
22705;SDS011;11520;51.198;4.468;2023-06-22T08:17:43;17.92;;;13.23;;
22705;SDS011;11520;51.198;4.468;2023-06-22T08:20:10;15.43;;;12.35;;
22705;SDS011;11520;51.198;4.468;2023-06-22T08:22:37;18.65;;;13.25;;
22705;SDS011;11520;51.198;4.468;2023-06-22T08:25:03;19.42;;;13.80;;
22705;SDS011;11520;51.198;4.468;2023-06-22T08:27:30;18.00;;;13.02;;
22705;SDS011;11520;51.198;4.468;2023-06-22T08:29:58;16.88;;;12.95;;
22705;SDS011;11520;51.198;4.468;2023-06-22T08:32:28;24.63;;;14.93;;
22705;SDS011;11520;51.198;4.468;2023-06-22T08:34:54;20.00;;;14.50;;
22705;SDS011;11520;51.198;4.468;2023-06-22T08:37:21;20.02;;;15.90;;
22705;SDS011;11520;51.198;4.468;2023-06-22T08:39:56;16.90;;;13.73;;
22705;SDS011;11520;51.198;4.468;2023-06-22T08:42:23;18.00;;;14.15;;
22705;SDS011;11520;51.198;4.468;2023-06-22T08:44:50;16.15;;;13.07;;
22705;SDS011;11520;51.198;4.468;2023-06-22T08:47:15;18.73;;;13.73;;
22705;SDS011;11520;51.198;4.468;2023-06-22T08:49:43;16.67;;;13.15;;
22705;SDS011;11520;51.198;4.468;2023-06-22T08:52:09;22.38;;;14.82;;
22705;SDS011;11520;51.198;4.468;2023-06-22T08:54:37;17.85;;;13.57;;
22705;SDS011;11520;51.198;4.468;2023-06-22T08:57:03;19.30;;;14.98;;
22705;SDS011;11520;51.198;4.468;2023-06-22T08:59:30;23.13;;;14.57;;
22705;SDS011;11520;51.198;4.468;2023-06-22T09:01:56;21.50;;;14.82;;
22705;SDS011;11520;51.198;4.468;2023-06-22T09:04:21;20.25;;;14.32;;
22705;SDS011;11520;51.198;4.468;2023-06-22T09:06:47;21.48;;;14.55;;
22705;SDS011;11520;51.198;4.468;2023-06-22T09:09:17;18.10;;;13.90;;
22705;SDS011;11520;51.198;4.468;2023-06-22T09:11:46;20.52;;;14.88;;
22705;SDS011;11520;51.198;4.468;2023-06-22T09:14:16;20.65;;;15.38;;
22705;SDS011;11520;51.198;4.468;2023-06-22T09:16:42;19.40;;;14.93;;
22705;SDS011;11520;51.198;4.468;2023-06-22T09:19:07;17.88;;;13.52;;
22705;SDS011;11520;51.198;4.468;2023-06-22T09:21:33;20.85;;;14.43;;
22705;SDS011;11520;51.198;4.468;2023-06-22T09:23:59;21.58;;;15.10;;
22705;SDS011;11520;51.198;4.468;2023-06-22T09:26:24;23.35;;;16.05;;
22705;SDS011;11520;51.198;4.468;2023-06-22T09:28:50;25.05;;;15.63;;
22705;SDS011;11520;51.198;4.468;2023-06-22T09:31:16;19.58;;;14.90;;
22705;SDS011;11520;51.198;4.468;2023-06-22T09:33:43;18.38;;;15.20;;
22705;SDS011;11520;51.198;4.468;2023-06-22T09:36:09;20.00;;;14.93;;
22705;SDS011;11520;51.198;4.468;2023-06-22T09:38:35;20.00;;;14.93;;
22705;SDS011;11520;51.198;4.468;2023-06-22T09:41:01;19.15;;;15.30;;
22705;SDS011;11520;51.198;4.468;2023-06-22T09:43:31;18.35;;;14.23;;
22705;SDS011;11520;51.198;4.468;2023-06-22T09:48:27;18.88;;;14.63;;
22705;SDS011;11520;51.198;4.468;2023-06-22T09:50:54;17.17;;;14.60;;
22705;SDS011;11520;51.198;4.468;2023-06-22T09:53:21;15.57;;;13.13;;
22705;SDS011;11520;51.198;4.468;2023-06-22T09:55:49;19.63;;;14.38;;
22705;SDS011;11520;51.198;4.468;2023-06-22T09:58:14;20.08;;;14.38;;
22705;SDS011;11520;51.198;4.468;2023-06-22T10:00:40;17.63;;;14.40;;
22705;SDS011;11520;51.198;4.468;2023-06-22T10:03:06;16.85;;;14.02;;
22705;SDS011;11520;51.198;4.468;2023-06-22T10:05:32;18.10;;;14.98;;
22705;SDS011;11520;51.198;4.468;2023-06-22T10:07:57;17.85;;;13.68;;
22705;SDS011;11520;51.198;4.468;2023-06-22T10:10:23;16.65;;;13.68;;
22705;SDS011;11520;51.198;4.468;2023-06-22T10:12:54;18.02;;;13.88;;
22705;SDS011;11520;51.198;4.468;2023-06-22T10:15:22;16.95;;;14.13;;
22705;SDS011;11520;51.198;4.468;2023-06-22T10:17:48;18.85;;;13.02;;
22705;SDS011;11520;51.198;4.468;2023-06-22T10:20:19;17.75;;;13.07;;
22705;SDS011;11520;51.198;4.468;2023-06-22T10:22:45;15.45;;;12.82;;
22705;SDS011;11520;51.198;4.468;2023-06-22T10:25:11;16.15;;;13.80;;
22705;SDS011;11520;51.198;4.468;2023-06-22T10:27:38;19.60;;;14.15;;
22705;SDS011;11520;51.198;4.468;2023-06-22T10:30:08;20.17;;;14.02;;
22705;SDS011;11520;51.198;4.468;2023-06-22T10:32:40;19.27;;;13.32;;
22705;SDS011;11520;51.198;4.468;2023-06-22T10:35:09;24.80;;;14.82;;
22705;SDS011;11520;51.198;4.468;2023-06-22T10:37:57;18.83;;;13.70;;
22705;SDS011;11520;51.198;4.468;2023-06-22T10:40:23;17.88;;;13.60;;
22705;SDS011;11520;51.198;4.468;2023-06-22T10:42:49;18.50;;;14.02;;
22705;SDS011;11520;51.198;4.468;2023-06-22T10:45:15;19.85;;;14.55;;
22705;SDS011;11520;51.198;4.468;2023-06-22T10:47:41;20.35;;;14.30;;
22705;SDS011;11520;51.198;4.468;2023-06-22T10:50:08;22.10;;;14.88;;
22705;SDS011;11520;51.198;4.468;2023-06-22T10:52:34;19.00;;;13.63;;
22705;SDS011;11520;51.198;4.468;2023-06-22T10:54:59;17.38;;;12.50;;
22705;SDS011;11520;51.198;4.468;2023-06-22T10:57:25;20.60;;;14.32;;
22705;SDS011;11520;51.198;4.468;2023-06-22T10:59:50;20.75;;;14.20;;
22705;SDS011;11520;51.198;4.468;2023-06-22T11:02:16;22.77;;;14.52;;
22705;SDS011;11520;51.198;4.468;2023-06-22T11:04:42;22.60;;;15.13;;
22705;SDS011;11520;51.198;4.468;2023-06-22T11:07:08;20.45;;;13.80;;
22705;SDS011;11520;51.198;4.468;2023-06-22T11:09:34;22.25;;;16.33;;
22705;SDS011;11520;51.198;4.468;2023-06-22T11:12:00;26.25;;;16.27;;
22705;SDS011;11520;51.198;4.468;2023-06-22T11:14:25;18.02;;;13.05;;
22705;SDS011;11520;51.198;4.468;2023-06-22T11:16:51;23.63;;;13.98;;
22705;SDS011;11520;51.198;4.468;2023-06-22T11:19:17;19.02;;;14.63;;
22705;SDS011;11520;51.198;4.468;2023-06-22T11:21:43;18.75;;;13.98;;
22705;SDS011;11520;51.198;4.468;2023-06-22T11:24:10;25.83;;;14.95;;
22705;SDS011;11520;51.198;4.468;2023-06-22T11:26:36;22.27;;;14.38;;
22705;SDS011;11520;51.198;4.468;2023-06-22T11:29:02;23.45;;;15.10;;
22705;SDS011;11520;51.198;4.468;2023-06-22T11:31:30;20.25;;;14.55;;
22705;SDS011;11520;51.198;4.468;2023-06-22T11:33:57;19.35;;;13.57;;
22705;SDS011;11520;51.198;4.468;2023-06-22T11:36:23;18.85;;;14.43;;
22705;SDS011;11520;51.198;4.468;2023-06-22T11:38:50;20.20;;;13.70;;
22705;SDS011;11520;51.198;4.468;2023-06-22T11:41:21;20.23;;;14.13;;
22705;SDS011;11520;51.198;4.468;2023-06-22T11:43:53;18.80;;;14.32;;
22705;SDS011;11520;51.198;4.468;2023-06-22T11:46:19;19.52;;;14.10;;
22705;SDS011;11520;51.198;4.468;2023-06-22T11:48:46;17.33;;;14.30;;
22705;SDS011;11520;51.198;4.468;2023-06-22T11:51:18;18.90;;;14.87;;
22705;SDS011;11520;51.198;4.468;2023-06-22T11:53:44;23.55;;;17.70;;
22705;SDS011;11520;51.198;4.468;2023-06-22T11:56:09;21.52;;;16.50;;
22705;SDS011;11520;51.198;4.468;2023-06-22T11:58:35;20.05;;;16.45;;
22705;SDS011;11520;51.198;4.468;2023-06-22T12:01:02;23.95;;;16.77;;
22705;SDS011;11520;51.198;4.468;2023-06-22T12:03:30;23.38;;;17.13;;
22705;SDS011;11520;51.198;4.468;2023-06-22T12:05:55;22.50;;;16.38;;
22705;SDS011;11520;51.198;4.468;2023-06-22T12:08:21;23.90;;;16.40;;
22705;SDS011;11520;51.198;4.468;2023-06-22T12:10:47;25.95;;;18.52;;
22705;SDS011;11520;51.198;4.468;2023-06-22T12:13:14;27.02;;;18.45;;
22705;SDS011;11520;51.198;4.468;2023-06-22T12:15:40;20.25;;;17.70;;
22705;SDS011;11520;51.198;4.468;2023-06-22T12:18:06;21.20;;;16.40;;
22705;SDS011;11520;51.198;4.468;2023-06-22T12:20:32;17.05;;;14.68;;
22705;SDS011;11520;51.198;4.468;2023-06-22T12:22:58;22.10;;;14.57;;
22705;SDS011;11520;51.198;4.468;2023-06-22T12:25:26;17.70;;;14.43;;
22705;SDS011;11520;51.198;4.468;2023-06-22T12:27:51;19.58;;;15.10;;
22705;SDS011;11520;51.198;4.468;2023-06-22T12:30:17;34.80;;;15.23;;
22705;SDS011;11520;51.198;4.468;2023-06-22T12:32:42;16.27;;;14.50;;
22705;SDS011;11520;51.198;4.468;2023-06-22T12:35:08;15.20;;;13.30;;
22705;SDS011;11520;51.198;4.468;2023-06-22T12:37:39;18.85;;;14.32;;
22705;SDS011;11520;51.198;4.468;2023-06-22T12:40:08;17.42;;;14.05;;
22705;SDS011;11520;51.198;4.468;2023-06-22T12:42:34;18.20;;;14.10;;
22705;SDS011;11520;51.198;4.468;2023-06-22T12:45:01;21.67;;;14.95;;
22705;SDS011;11520;51.198;4.468;2023-06-22T12:47:32;18.42;;;15.07;;
22705;SDS011;11520;51.198;4.468;2023-06-22T12:50:02;19.63;;;15.15;;
22705;SDS011;11520;51.198;4.468;2023-06-22T12:52:29;19.38;;;15.63;;
22705;SDS011;11520;51.198;4.468;2023-06-22T12:54:56;22.10;;;16.23;;
22705;SDS011;11520;51.198;4.468;2023-06-22T12:57:22;20.17;;;16.17;;
22705;SDS011;11520;51.198;4.468;2023-06-22T12:59:48;22.98;;;17.13;;
22705;SDS011;11520;51.198;4.468;2023-06-22T13:02:14;24.83;;;17.98;;
22705;SDS011;11520;51.198;4.468;2023-06-22T13:04:39;21.48;;;17.48;;
22705;SDS011;11520;51.198;4.468;2023-06-22T13:07:07;23.00;;;17.85;;
22705;SDS011;11520;51.198;4.468;2023-06-22T13:09:33;22.88;;;18.30;;
22705;SDS011;11520;51.198;4.468;2023-06-22T13:12:01;22.45;;;17.65;;
22705;SDS011;11520;51.198;4.468;2023-06-22T13:14:26;27.40;;;18.60;;
22705;SDS011;11520;51.198;4.468;2023-06-22T13:16:52;23.67;;;19.80;;
22705;SDS011;11520;51.198;4.468;2023-06-22T13:19:18;24.67;;;18.08;;
22705;SDS011;11520;51.198;4.468;2023-06-22T13:21:44;26.08;;;19.65;;
22705;SDS011;11520;51.198;4.468;2023-06-22T13:24:09;28.67;;;22.42;;
22705;SDS011;11520;51.198;4.468;2023-06-22T13:26:35;25.50;;;20.08;;
22705;SDS011;11520;51.198;4.468;2023-06-22T13:29:02;27.25;;;20.10;;
22705;SDS011;11520;51.198;4.468;2023-06-22T13:31:28;23.65;;;19.60;;
22705;SDS011;11520;51.198;4.468;2023-06-22T13:33:56;23.50;;;18.42;;
22705;SDS011;11520;51.198;4.468;2023-06-22T13:36:23;23.90;;;18.30;;
22705;SDS011;11520;51.198;4.468;2023-06-22T13:38:49;25.13;;;19.27;;
22705;SDS011;11520;51.198;4.468;2023-06-22T13:41:15;30.27;;;20.52;;
22705;SDS011;11520;51.198;4.468;2023-06-22T13:43:41;23.63;;;19.77;;
22705;SDS011;11520;51.198;4.468;2023-06-22T13:46:07;27.42;;;21.42;;
22705;SDS011;11520;51.198;4.468;2023-06-22T13:48:32;23.83;;;20.27;;
22705;SDS011;11520;51.198;4.468;2023-06-22T13:50:58;27.92;;;21.75;;
22705;SDS011;11520;51.198;4.468;2023-06-22T13:53:25;28.27;;;22.60;;
22705;SDS011;11520;51.198;4.468;2023-06-22T13:55:51;27.77;;;21.83;;
22705;SDS011;11520;51.198;4.468;2023-06-22T13:58:17;26.45;;;20.75;;
22705;SDS011;11520;51.198;4.468;2023-06-22T14:00:44;31.48;;;21.67;;
22705;SDS011;11520;51.198;4.468;2023-06-22T14:03:11;26.77;;;21.35;;
22705;SDS011;11520;51.198;4.468;2023-06-22T14:05:36;30.45;;;23.02;;
22705;SDS011;11520;51.198;4.468;2023-06-22T14:08:02;27.65;;;22.55;;
22705;SDS011;11520;51.198;4.468;2023-06-22T14:10:27;30.13;;;22.95;;
22705;SDS011;11520;51.198;4.468;2023-06-22T14:12:53;29.90;;;23.40;;
22705;SDS011;11520;51.198;4.468;2023-06-22T14:15:19;30.42;;;23.80;;
22705;SDS011;11520;51.198;4.468;2023-06-22T14:17:44;32.85;;;25.00;;
22705;SDS011;11520;51.198;4.468;2023-06-22T14:20:10;30.65;;;23.48;;
22705;SDS011;11520;51.198;4.468;2023-06-22T14:22:37;34.63;;;23.85;;
22705;SDS011;11520;51.198;4.468;2023-06-22T14:25:03;30.40;;;23.92;;
22705;SDS011;11520;51.198;4.468;2023-06-22T14:27:35;30.20;;;23.92;;
22705;SDS011;11520;51.198;4.468;2023-06-22T14:30:00;29.90;;;23.48;;
22705;SDS011;11520;51.198;4.468;2023-06-22T14:32:27;30.92;;;23.67;;
22705;SDS011;11520;51.198;4.468;2023-06-22T14:34:55;30.40;;;23.83;;